Time;durP1;ratioP1;P1;durP2;ratioP2;P2;SDS_P1;SDS_P2;PMS_P1;PMS_P2;Temp;Humidity;BMP_temperature;BMP_pressure;BME280_temperature;BME280_humidity;BME280_pressure;Samples;Min_cycle;Max_cycle;Signal;HPM_P1;HPM_P2
2021/04/08 00:00:54;;;;;;;2.50;1.92;;;;;;;8.05;21.42;101151.22;5011121;28;20125;-66
2021/04/08 00:03:20;;;;;;;2.05;1.83;;;;;;;8.05;21.36;101155.56;5010747;28;20142;-65
2021/04/08 00:05:47;;;;;;;1.95;1.55;;;;;;;8.13;21.37;101151.00;5011716;28;20042;-66
2021/04/08 00:08:13;;;;;;;2.08;1.90;;;;;;;8.10;21.31;101164.94;5010503;28;20046;-66
2021/04/08 00:10:39;;;;;;;2.67;1.70;;;;;;;8.12;21.70;101157.09;5012378;28;20042;-66
2021/04/08 00:13:06;;;;;;;1.95;1.75;;;;;;;8.15;21.37;101164.84;5012384;28;20057;-66
2021/04/08 00:15:32;;;;;;;2.47;1.63;;;;;;;7.96;21.07;101155.78;5010873;28;20495;-66
2021/04/08 00:17:58;;;;;;;3.65;1.65;;;;;;;7.96;22.20;101158.38;5012091;28;20149;-66
2021/04/08 00:20:25;;;;;;;4.13;1.90;;;;;;;8.01;21.65;101159.13;5009825;28;20041;-66
2021/04/08 00:22:52;;;;;;;2.03;1.48;;;;;;;7.91;21.74;101155.03;5011037;28;20077;-66
2021/04/08 00:25:18;;;;;;;3.90;1.60;;;;;;;7.80;22.12;101157.91;5010227;28;20106;-66
2021/04/08 00:27:45;;;;;;;2.30;1.70;;;;;;;7.82;21.72;101156.09;5010549;28;20121;-66
2021/04/08 00:30:12;;;;;;;1.55;1.45;;;;;;;7.99;21.53;101153.09;5010831;28;20045;-66
2021/04/08 00:32:39;;;;;;;1.75;1.60;;;;;;;8.12;21.55;101151.91;5010545;28;20042;-66
2021/04/08 00:35:06;;;;;;;2.10;1.55;;;;;;;8.13;21.29;101153.59;5010455;28;20570;-66
2021/04/08 00:37:33;;;;;;;3.33;2.08;;;;;;;8.13;20.71;101153.59;5010502;28;20520;-65
2021/04/08 00:39:59;;;;;;;2.00;1.63;;;;;;;8.08;20.91;101152.88;5011110;28;20064;-65
2021/04/08 00:42:26;;;;;;;2.17;1.60;;;;;;;8.12;21.53;101147.56;5010376;28;20125;-66
2021/04/08 00:44:52;;;;;;;1.55;1.45;;;;;;;8.02;21.68;101153.88;5011433;28;20053;-66
2021/04/08 00:47:20;;;;;;;1.50;1.40;;;;;;;8.09;21.09;101152.81;5010140;28;20459;-66
2021/04/08 00:49:47;;;;;;;2.55;1.88;;;;;;;8.14;21.34;101152.72;5010404;28;20488;-66
2021/04/08 00:52:13;;;;;;;2.33;1.67;;;;;;;8.13;21.20;101148.41;5010135;28;20436;-66
2021/04/08 00:54:40;;;;;;;1.90;1.70;;;;;;;8.15;21.41;101151.84;5010227;28;20054;-66
2021/04/08 00:57:07;;;;;;;1.38;1.27;;;;;;;8.14;21.07;101150.97;5010735;28;20124;-65
2021/04/08 00:59:33;;;;;;;2.10;1.52;;;;;;;8.12;20.93;101142.38;5009913;28;20049;-66
2021/04/08 01:02:00;;;;;;;1.50;1.40;;;;;;;8.13;20.86;101149.28;5010595;28;20057;-66
2021/04/08 01:04:27;;;;;;;1.80;1.58;;;;;;;8.13;21.04;101148.41;5010265;28;20548;-66
2021/04/08 01:06:53;;;;;;;1.88;1.50;;;;;;;8.10;20.87;101156.31;5010049;28;20457;-65
2021/04/08 01:09:20;;;;;;;2.30;1.52;;;;;;;8.04;21.29;101159.03;5009033;28;20053;-66
2021/04/08 01:11:46;;;;;;;4.43;2.67;;;;;;;7.98;21.06;101152.25;5010771;28;20125;-66
2021/04/08 01:14:13;;;;;;;1.35;1.27;;;;;;;7.97;20.74;101158.34;5010609;28;20052;-66
2021/04/08 01:16:50;;;;;;;4.28;2.00;;;;;;;8.06;20.85;101158.13;5007372;28;20506;-66
2021/04/08 01:19:55;;;;;;;3.33;1.65;;;;;;;8.08;21.02;101158.91;5009976;28;20107;-66
2021/04/08 01:22:42;;;;;;;1.83;1.63;;;;;;;8.06;20.60;101165.91;5009614;28;20049;-66
2021/04/08 01:25:23;;;;;;;2.13;1.30;;;;;;;8.06;20.74;101159.88;5010234;28;20093;-66
2021/04/08 01:28:06;;;;;;;1.60;1.50;;;;;;;8.06;20.85;101162.47;5010932;28;20060;-66
2021/04/08 01:30:44;;;;;;;1.60;1.50;;;;;;;7.96;20.96;101160.97;5009592;28;20553;-65
2021/04/08 01:33:18;;;;;;;1.42;1.33;;;;;;;8.03;21.23;101165.13;5016300;28;20033;-65
2021/04/08 01:35:47;;;;;;;2.17;1.95;;;;;;;7.88;21.01;101161.16;5001636;28;20560;-65
2021/04/08 01:38:21;;;;;;;3.05;1.73;;;;;;;7.92;21.57;101164.53;5009627;28;20484;-64
2021/04/08 01:40:49;;;;;;;3.97;1.83;;;;;;;7.91;21.83;101162.84;5006333;28;20045;-65
2021/04/08 01:43:24;;;;;;;1.75;1.60;;;;;;;7.77;21.69;101158.81;4997528;28;20121;-64
2021/04/08 01:45:54;;;;;;;2.28;1.77;;;;;;;7.83;22.07;101160.44;4996819;28;20396;-65
2021/04/08 01:48:20;;;;;;;1.50;1.40;;;;;;;7.70;22.30;101162.44;4993844;28;20169;-65
2021/04/08 01:50:49;;;;;;;1.40;1.30;;;;;;;7.72;22.34;101167.59;4997051;28;20061;-65
2021/04/08 01:53:19;;;;;;;3.47;1.73;;;;;;;7.66;21.92;101163.41;5011428;28;20558;-64
2021/04/08 01:55:51;;;;;;;2.75;1.63;;;;;;;7.79;21.60;101159.66;5004708;28;20065;-65
2021/04/08 01:58:21;;;;;;;3.75;2.53;;;;;;;7.77;21.74;101163.16;5005505;28;20485;-65
2021/04/08 02:00:48;;;;;;;2.08;1.63;;;;;;;7.72;22.38;101162.41;5000889;28;20046;-66
2021/04/08 02:03:16;;;;;;;3.03;2.05;;;;;;;7.77;21.88;101166.59;5002322;28;20034;-65
2021/04/08 02:05:43;;;;;;;2.80;2.00;;;;;;;7.65;22.16;101166.91;4995239;28;20077;-65
2021/04/08 02:08:10;;;;;;;2.25;1.30;;;;;;;7.69;22.23;101163.34;4995978;28;20097;-66
2021/04/08 02:10:39;;;;;;;1.50;1.40;;;;;;;7.75;21.61;101162.34;4992693;28;20108;-66
2021/04/08 02:13:09;;;;;;;2.60;1.70;;;;;;;7.77;21.83;101165.75;5010473;28;20102;-65
2021/04/08 02:15:36;;;;;;;1.60;1.50;;;;;;;7.76;21.38;101162.31;5004714;28;20126;-65
2021/04/08 02:18:04;;;;;;;2.78;1.77;;;;;;;7.64;21.63;101160.00;5003211;28;20074;-65
2021/04/08 02:20:33;;;;;;;2.85;1.95;;;;;;;7.69;21.53;101160.75;5002937;28;20035;-65
2021/04/08 02:23:02;;;;;;;3.65;1.88;;;;;;;7.68;21.79;101158.19;4990775;28;20125;-65
2021/04/08 02:25:31;;;;;;;2.15;1.95;;;;;;;7.61;22.02;101165.25;5001552;28;20488;-65
2021/04/08 02:28:00;;;;;;;2.05;1.77;;;;;;;7.69;21.55;101160.75;4995818;28;20121;-65
2021/04/08 02:30:28;;;;;;;2.42;1.77;;;;;;;7.67;21.47;101159.06;5009561;28;20038;-64
2021/04/08 02:32:55;;;;;;;1.80;1.70;;;;;;;7.69;21.56;101158.16;5009493;28;20125;-64
2021/04/08 02:35:21;;;;;;;1.65;1.55;;;;;;;7.67;21.79;101165.13;5009872;28;20073;-66
2021/04/08 02:37:49;;;;;;;1.50;1.40;;;;;;;7.63;21.85;101162.66;5008984;28;20080;-62
2021/04/08 02:40:19;;;;;;;3.20;1.88;;;;;;;7.72;21.78;101163.25;5010309;28;20050;-65
2021/04/08 02:42:47;;;;;;;1.90;1.58;;;;;;;7.62;21.60;101151.41;5010072;28;20132;-64
2021/04/08 02:45:15;;;;;;;1.60;1.50;;;;;;;7.57;21.91;101143.72;4996314;28;20042;-64
2021/04/08 02:47:41;;;;;;;1.83;1.58;;;;;;;7.51;22.41;101153.38;5009899;28;20165;-65
2021/04/08 02:50:09;;;;;;;2.08;1.88;;;;;;;7.59;22.41;101151.47;5009410;28;20484;-65
2021/04/08 02:53:03;;;;;;;1.45;1.30;;;;;;;7.49;22.41;101153.41;5009697;28;20117;-65
2021/04/08 02:55:38;;;;;;;1.40;1.30;;;;;;;7.55;22.56;101147.22;4995467;28;20042;-65
2021/04/08 02:58:06;;;;;;;1.60;1.50;;;;;;;7.52;22.38;101142.97;5010039;28;20129;-65
2021/04/08 03:00:36;;;;;;;1.83;1.63;;;;;;;7.46;22.09;101145.72;5009605;28;20076;-65
2021/04/08 03:03:06;;;;;;;2.33;2.03;;;;;;;7.55;22.62;101142.91;5009729;28;20530;-65
2021/04/08 03:05:39;;;;;;;2.42;1.52;;;;;;;7.41;22.74;101142.38;5008785;28;20046;-65
2021/04/08 03:08:10;;;;;;;1.65;1.48;;;;;;;7.46;22.67;101150.06;5008318;28;20046;-65
2021/04/08 03:10:41;;;;;;;1.42;1.33;;;;;;;7.35;22.67;101156.34;5008517;28;20057;-65
2021/04/08 03:13:11;;;;;;;1.67;1.58;;;;;;;7.32;22.71;101148.63;5008312;28;20116;-65
2021/04/08 03:15:39;;;;;;;1.20;1.20;;;;;;;7.34;23.20;101151.16;5006122;28;20137;-65
2021/04/08 03:18:14;;;;;;;2.13;1.60;;;;;;;7.37;22.94;101155.44;5007786;28;20568;-65
2021/04/08 03:20:44;;;;;;;1.35;1.25;;;;;;;7.41;22.80;101157.94;5007621;28;20065;-65
2021/04/08 03:23:12;;;;;;;1.48;1.30;;;;;;;7.37;22.92;101153.69;5010291;28;20070;-66
2021/04/08 03:25:40;;;;;;;1.40;1.30;;;;;;;7.41;23.31;101157.09;5011615;28;20065;-66
2021/04/08 03:28:11;;;;;;;1.45;1.35;;;;;;;7.35;22.84;101158.09;5012070;28;20046;-65
2021/04/08 03:30:40;;;;;;;2.50;1.92;;;;;;;7.31;23.06;101156.44;5011654;28;20046;-65
2021/04/08 03:33:09;;;;;;;1.65;1.48;;;;;;;7.29;23.00;101153.00;5012755;28;20045;-65
2021/04/08 03:35:37;;;;;;;1.45;1.23;;;;;;;7.18;23.02;101155.84;5012404;28;20054;-65
2021/04/08 03:38:05;;;;;;;1.35;1.30;;;;;;;7.14;23.18;101161.09;5013191;28;20125;-65
2021/04/08 03:40:31;;;;;;;1.60;1.40;;;;;;;7.22;23.43;101157.47;5011672;28;20041;-64
2021/04/08 03:42:58;;;;;;;1.33;1.10;;;;;;;7.06;23.69;101153.50;5011840;28;20081;-64
2021/04/08 03:45:25;;;;;;;1.50;1.40;;;;;;;7.06;23.69;101156.94;5011366;28;20038;-64
2021/04/08 03:47:53;;;;;;;1.27;1.17;;;;;;;7.06;24.31;101156.09;5012263;28;20078;-64
2021/04/08 03:50:20;;;;;;;1.30;1.20;;;;;;;7.26;23.65;101158.28;5010668;28;20523;-64
2021/04/08 03:52:46;;;;;;;1.17;1.17;;;;;;;7.09;23.84;101153.47;5010418;28;20092;-64
2021/04/08 03:55:15;;;;;;;1.58;1.45;;;;;;;7.02;24.38;101154.44;5011579;28;20493;-64
2021/04/08 03:57:43;;;;;;;1.58;1.35;;;;;;;7.02;23.72;101149.25;5010366;28;20042;-64
2021/04/08 04:00:12;;;;;;;1.58;1.48;;;;;;;7.18;23.80;101165.34;5011419;28;20103;-64
2021/04/08 04:02:40;;;;;;;1.60;1.50;;;;;;;7.20;23.89;101153.22;5011143;28;20128;-64
2021/04/08 04:05:09;;;;;;;1.92;1.83;;;;;;;7.13;23.82;101154.22;5011232;28;20077;-65
2021/04/08 04:07:36;;;;;;;1.77;1.52;;;;;;;6.99;23.74;101149.34;5010141;28;20504;-64
2021/04/08 04:10:04;;;;;;;1.58;1.48;;;;;;;6.95;24.39;101158.06;5011970;28;20042;-64
2021/04/08 04:12:34;;;;;;;4.35;2.30;;;;;;;7.08;24.03;101162.97;5010970;28;20130;-65
2021/04/08 04:15:06;;;;;;;1.70;1.40;;;;;;;7.04;24.12;101156.16;5011922;28;20069;-65
2021/04/08 04:17:33;;;;;;;1.83;1.50;;;;;;;6.88;24.34;101164.28;5010084;28;20390;-65
2021/04/08 04:20:01;;;;;;;1.42;1.33;;;;;;;6.85;24.58;101164.31;5011758;28;20046;-66
2021/04/08 04:22:39;;;;;;;2.05;1.60;;;;;;;6.98;24.43;101160.59;5010769;28;20073;-65
2021/04/08 04:25:06;;;;;;;1.60;1.50;;;;;;;6.93;24.45;101170.22;5012311;28;20049;-65
2021/04/08 04:27:33;;;;;;;2.00;1.85;;;;;;;7.07;24.09;101168.16;5009638;28;20117;-65
2021/04/08 04:30:00;;;;;;;1.63;1.52;;;;;;;7.00;24.04;101166.59;5010408;28;20540;-65
2021/04/08 04:32:27;;;;;;;1.60;1.50;;;;;;;7.06;23.88;101167.31;5008977;28;20114;-65
2021/04/08 04:34:53;;;;;;;1.50;1.40;;;;;;;7.04;24.95;101170.84;5010169;28;20515;-64
2021/04/08 04:37:20;;;;;;;1.92;1.70;;;;;;;6.97;24.08;101174.44;5007782;28;20049;-65
2021/04/08 04:39:46;;;;;;;1.80;1.70;;;;;;;6.96;23.82;101176.16;5009608;28;20373;-65
2021/04/08 04:42:13;;;;;;;2.13;1.75;;;;;;;6.98;24.31;101176.16;5009311;28;20050;-65
2021/04/08 04:44:40;;;;;;;2.58;1.90;;;;;;;6.99;24.17;101175.28;5010927;28;20091;-65
2021/04/08 04:47:07;;;;;;;3.13;1.70;;;;;;;7.05;24.22;101180.31;5009651;28;20099;-64
2021/04/08 04:49:33;;;;;;;1.70;1.60;;;;;;;7.10;24.05;101181.09;5011013;28;20437;-65
2021/04/08 04:52:00;;;;;;;1.85;1.70;;;;;;;7.18;24.33;101170.53;5008779;28;20129;-65
2021/04/08 04:54:26;;;;;;;2.70;2.30;;;;;;;7.24;24.40;101175.59;5010885;28;20054;-65
2021/04/08 04:56:53;;;;;;;2.53;2.33;;;;;;;7.11;24.35;101182.78;5009702;28;20209;-65
2021/04/08 04:59:19;;;;;;;2.63;2.10;;;;;;;7.17;24.77;101180.06;5011566;28;20117;-65
2021/04/08 05:01:46;;;;;;;2.83;2.30;;;;;;;7.21;24.55;101186.91;5007462;28;20057;-66
2021/04/08 05:04:12;;;;;;;2.72;2.53;;;;;;;7.31;24.83;101187.56;5007848;28;20484;-64
2021/04/08 05:06:39;;;;;;;2.40;2.20;;;;;;;7.60;24.76;101189.50;5016820;28;20128;-65
2021/04/08 05:09:05;;;;;;;3.03;2.83;;;;;;;7.78;24.78;101189.09;5006640;28;20070;-65
2021/04/08 05:11:33;;;;;;;3.45;2.20;;;;;;;7.95;24.46;101183.50;5009999;28;20042;-64
2021/04/08 05:13:59;;;;;;;2.00;1.60;;;;;;;8.34;23.43;101183.38;5000999;28;20049;-65
2021/04/08 05:16:26;;;;;;;2.33;2.13;;;;;;;8.62;23.09;101191.31;5003635;28;20046;-65
2021/04/08 05:18:52;;;;;;;4.30;1.83;;;;;;;8.90;23.17;101186.25;4996426;28;20149;-65
2021/04/08 05:21:19;;;;;;;2.72;1.77;;;;;;;9.13;22.84;101186.44;4998229;28;20092;-69
2021/04/08 05:23:45;;;;;;;4.07;2.10;;;;;;;9.18;22.81;101191.50;4993038;28;20134;-66
2021/04/08 05:26:12;;;;;;;2.22;2.03;;;;;;;9.65;22.07;101178.81;5004395;28;20065;-79
2021/04/08 05:28:38;;;;;;;3.05;1.67;;;;;;;9.66;21.49;101188.31;4998463;28;20091;-79
2021/04/08 05:31:06;;;;;;;2.72;2.03;;;;;;;9.74;23.48;101188.91;5009346;28;20066;-76
2021/04/08 05:33:32;;;;;;;3.25;1.92;;;;;;;9.14;25.08;101190.72;5002021;28;20054;-78
2021/04/08 05:35:58;;;;;;;1.85;1.75;;;;;;;8.73;26.52;101197.09;5007860;28;20041;-78
2021/04/08 05:38:25;;;;;;;2.13;1.92;;;;;;;9.49;25.68;101193.19;5010033;28;20072;-79
2021/04/08 05:40:51;;;;;;;6.45;2.22;;;;;;;9.66;26.81;101189.16;4995694;28;20135;-75
2021/04/08 05:43:18;;;;;;;8.38;2.15;;;;;;;10.00;27.00;101190.69;5003367;28;20446;-75
2021/04/08 05:45:47;;;;;;;10.60;2.00;;;;;;;9.72;28.43;101185.53;5006429;28;20395;-73
2021/04/08 05:48:17;;;;;;;5.55;2.22;;;;;;;10.16;27.83;101183.22;5004261;28;20508;-73
2021/04/08 05:50:43;;;;;;;5.93;2.55;;;;;;;10.02;27.85;101178.50;5002392;28;20038;-73
2021/04/08 05:53:10;;;;;;;6.55;2.13;;;;;;;10.58;27.07;101182.69;5000579;28;20065;-77
2021/04/08 05:55:36;;;;;;;7.88;3.10;;;;;;;11.01;25.96;101188.06;5002064;28;20480;-75
2021/04/08 05:58:02;;;;;;;8.13;2.45;;;;;;;11.22;25.32;101189.03;5006022;28;20042;-78
2021/04/08 06:00:29;;;;;;;10.82;2.80;;;;;;;11.72;25.94;101188.00;5009526;28;20038;-71
2021/04/08 06:02:56;;;;;;;9.98;3.42;;;;;;;12.15;25.23;101199.38;5005173;28;20126;-72
2021/04/08 06:05:22;;;;;;;24.83;5.22;;;;;;;12.41;26.00;101201.75;5003013;28;20107;-72
2021/04/08 06:07:49;;;;;;;12.30;4.13;;;;;;;12.81;25.52;101203.47;5000765;28;20042;-71
2021/04/08 06:10:16;;;;;;;6.15;3.08;;;;;;;13.22;24.38;101202.56;4995797;28;20066;-71
2021/04/08 06:12:43;;;;;;;7.68;3.88;;;;;;;13.43;24.82;101212.06;5005443;28;20042;-70
2021/04/08 06:15:11;;;;;;;20.90;3.60;;;;;;;13.68;24.99;101209.13;5005390;28;20037;-71
2021/04/08 06:17:37;;;;;;;8.35;3.08;;;;;;;13.96;24.89;101213.06;5002694;28;20085;-72
2021/04/08 06:20:06;;;;;;;13.65;3.20;;;;;;;14.11;24.88;101217.53;5008089;28;20065;-68
2021/04/08 06:22:33;;;;;;;9.30;4.25;;;;;;;14.32;25.00;101226.94;5008203;28;20057;-74
2021/04/08 06:24:59;;;;;;;13.00;3.33;;;;;;;14.75;24.65;101234.44;5003363;28;20069;-75
2021/04/08 06:27:28;;;;;;;11.55;3.40;;;;;;;14.87;24.37;101229.44;4995465;28;20060;-76
2021/04/08 06:29:55;;;;;;;12.63;3.45;;;;;;;13.91;25.70;101229.00;5007142;28;20531;-75
2021/04/08 06:32:22;;;;;;;13.02;3.50;;;;;;;14.08;25.60;101229.03;5003821;28;20037;-77
2021/04/08 06:34:49;;;;;;;6.90;2.80;;;;;;;14.44;25.55;101240.41;5006921;28;20472;-76
2021/04/08 06:37:16;;;;;;;10.30;4.18;;;;;;;14.36;24.91;101236.38;5006187;28;20049;-76
2021/04/08 06:39:42;;;;;;;11.27;3.72;;;;;;;14.14;25.90;101241.81;5007461;28;20137;-75
2021/04/08 06:42:09;;;;;;;11.07;3.38;;;;;;;15.04;25.15;101246.91;5005191;28;20129;-77
2021/04/08 06:44:37;;;;;;;8.93;3.78;;;;;;;15.84;23.91;101253.13;5004098;28;20125;-74
2021/04/08 06:47:05;;;;;;;6.38;3.75;;;;;;;16.68;22.73;101251.75;5002324;28;20053;-74
2021/04/08 06:49:42;;;;;;;10.88;4.03;;;;;;;17.02;21.79;101249.75;5005012;28;20034;-77
2021/04/08 06:52:11;;;;;;;5.07;3.47;;;;;;;17.67;20.74;101247.41;5004114;28;20050;-73
2021/04/08 06:54:38;;;;;;;7.38;3.85;;;;;;;18.15;19.88;101242.56;5006208;28;20045;-74
2021/04/08 06:57:05;;;;;;;3.97;2.97;;;;;;;17.47;18.07;101248.69;5001436;28;20038;-74
2021/04/08 06:59:32;;;;;;;3.08;2.78;;;;;;;16.38;18.02;101248.28;5006247;28;20125;-73
2021/04/08 07:02:00;;;;;;;5.68;2.20;;;;;;;16.44;18.71;101247.91;5006085;28;20091;-73
2021/04/08 07:04:26;;;;;;;5.90;2.67;;;;;;;17.26;18.57;101256.16;4998641;28;20099;-67
2021/04/08 07:06:53;;;;;;;6.63;3.55;;;;;;;17.32;18.72;101261.97;5002062;28;20065;-67
2021/04/08 07:09:19;;;;;;;21.90;3.50;;;;;;;18.70;18.47;101262.69;4999196;28;20400;-69
2021/04/08 07:11:46;;;;;;;5.97;3.42;;;;;;;18.18;18.04;101260.84;5006399;28;20063;-67
2021/04/08 07:14:12;;;;;;;5.47;2.42;;;;;;;17.99;18.81;101265.63;5004128;28;20042;-68
2021/04/08 07:16:39;;;;;;;6.72;3.47;;;;;;;18.76;17.69;101264.91;5001721;28;20049;-67
2021/04/08 07:19:07;;;;;;;4.82;3.45;;;;;;;19.49;17.01;101264.19;5007457;28;20408;-65
2021/04/08 07:21:36;;;;;;;5.15;3.47;;;;;;;20.24;15.88;101263.22;5001549;28;20127;-65
2021/04/08 07:24:13;;;;;;;6.13;2.60;;;;;;;19.56;15.71;101277.84;5000651;28;20038;-64
2021/04/08 07:27:05;;;;;;;3.17;2.22;;;;;;;20.13;13.58;101264.88;5004119;28;20046;-65
2021/04/08 07:29:40;;;;;;;3.90;2.78;;;;;;;19.08;13.76;101264.50;5004369;28;20136;-65
2021/04/08 07:32:14;;;;;;;4.72;3.63;;;;;;;18.67;14.31;101270.78;5005726;28;20046;-65
2021/04/08 07:34:45;;;;;;;;;;;;;;;18.75;13.93;101279.06;5004559;28;20057;-66
2021/04/08 07:37:12;;;;;;;4.15;2.90;;;;;;;19.51;14.39;101277.34;5005717;28;19965;-66
2021/04/08 07:39:44;;;;;;;6.72;3.20;;;;;;;19.43;13.95;101274.38;5005246;28;20104;-65
2021/04/08 07:42:12;;;;;;;3.85;2.45;;;;;;;19.67;13.29;101275.31;5005620;28;20137;-68
2021/04/08 07:44:50;;;;;;;3.58;2.63;;;;;;;21.02;12.91;101278.50;5002136;28;20046;-66
2021/04/08 07:47:20;;;;;;;6.70;3.22;;;;;;;21.50;13.13;101280.94;4995398;28;20072;-67
2021/04/08 07:49:48;;;;;;;13.65;2.97;;;;;;;21.71;13.00;101276.59;5003696;28;20056;-66
2021/04/08 07:52:15;;;;;;;6.10;2.92;;;;;;;22.04;13.09;101277.47;5001578;28;20052;-66
2021/04/08 07:55:21;;;;;;;7.78;3.15;;;;;;;21.87;12.64;101277.03;5001829;28;20042;-65
2021/04/08 07:58:13;;;;;;;3.13;2.40;;;;;;;21.71;12.74;101282.72;5063346;28;20530;-66
2021/04/08 08:00:51;;;;;;;3.25;2.70;;;;;;;21.75;12.73;101278.03;5065862;28;20050;-67
2021/04/08 08:03:25;;;;;;;3.58;2.83;;;;;;;20.80;13.23;101285.47;5016294;28;20047;-70
2021/04/08 08:05:58;;;;;;;5.68;3.30;;;;;;;21.76;13.04;101287.66;5000329;28;20039;-64
2021/04/08 08:08:34;;;;;;;3.65;2.85;;;;;;;22.43;12.81;101279.53;5000692;28;20106;-66
2021/04/08 08:11:06;;;;;;;5.20;2.95;;;;;;;22.58;11.67;101276.53;5003381;28;20050;-67
2021/04/08 08:13:37;;;;;;;7.65;2.50;;;;;;;21.91;12.66;101272.31;5005654;28;20073;-66
2021/04/08 08:16:05;;;;;;;2.70;2.50;;;;;;;22.58;11.50;101268.56;5006091;28;20061;-64
2021/04/08 08:18:41;;;;;;;3.15;2.85;;;;;;;23.18;11.12;101264.31;5006601;28;20069;-66
2021/04/08 08:21:15;;;;;;;4.53;2.63;;;;;;;24.14;11.16;101261.06;5010818;28;20081;-66
2021/04/08 08:23:43;;;;;;;2.90;2.70;;;;;;;24.06;10.92;101260.91;5009142;28;20061;-64
2021/04/08 08:26:26;;;;;;;4.10;3.03;;;;;;;22.52;11.30;101266.41;5009915;28;20442;-66
2021/04/08 08:29:23;;;;;;;2.60;2.40;;;;;;;23.28;11.77;101262.56;5006107;28;20111;-74
2021/04/08 08:31:53;;;;;;;3.95;3.35;;;;;;;23.59;11.68;101273.13;5004945;28;20095;-75
2021/04/08 08:34:24;;;;;;;3.85;3.03;;;;;;;24.80;11.40;101271.81;5008550;28;20095;-73
2021/04/08 08:36:55;;;;;;;5.57;2.97;;;;;;;23.63;11.12;101271.91;5007429;28;20540;-75
2021/04/08 08:39:27;;;;;;;5.10;2.80;;;;;;;24.41;10.80;101265.72;5008289;28;20050;-79
2021/04/08 08:41:56;;;;;;;7.50;3.45;;;;;;;25.01;11.12;101266.28;5007150;28;20536;-74
2021/04/08 08:44:22;;;;;;;3.58;3.00;;;;;;;24.74;11.62;101276.88;5008763;28;20099;-71
2021/04/08 08:46:58;;;;;;;3.08;2.50;;;;;;;23.50;11.72;101267.66;5007713;28;20555;-73
2021/04/08 08:50:11;;;;;;;3.80;2.83;;;;;;;22.54;11.27;101272.47;5007754;28;20460;-73
2021/04/08 08:52:43;;;;;;;3.90;2.88;;;;;;;22.23;11.79;101267.88;5003266;28;20547;-77
2021/04/08 08:55:11;;;;;;;3.17;2.88;;;;;;;23.34;12.12;101267.31;5003737;28;20519;-71
2021/04/08 08:57:39;;;;;;;4.07;3.67;;;;;;;22.95;11.95;101269.78;5008569;28;20046;-69
2021/04/08 09:00:07;;;;;;;2.97;2.67;;;;;;;23.86;11.64;101265.38;4999651;28;20135;-72
2021/04/08 09:02:38;;;;;;;3.00;2.58;;;;;;;24.36;11.39;101267.97;5003734;28;20045;-73
2021/04/08 09:05:12;;;;;;;8.25;4.32;;;;;;;23.14;11.87;101268.22;5006217;28;20404;-73
2021/04/08 09:07:44;;;;;;;4.40;3.75;;;;;;;22.53;11.91;101268.97;5003091;28;20117;-71
2021/04/08 09:10:36;;;;;;;3.17;2.70;;;;;;;23.23;11.65;101268.25;5001727;28;20035;-74
2021/04/08 09:13:05;;;;;;;3.72;3.28;;;;;;;23.38;11.50;101265.22;4992240;28;20069;-74
2021/04/08 09:15:31;;;;;;;6.60;5.38;;;;;;;22.25;11.48;101264.25;5007697;28;20522;-74
2021/04/08 09:17:59;;;;;;;6.13;3.83;;;;;;;20.62;12.57;101274.47;5007121;28;20053;-73
2021/04/08 09:20:27;;;;;;;3.33;2.95;;;;;;;20.90;13.12;101269.69;5008193;28;20049;-75
2021/04/08 09:23:04;;;;;;;5.78;3.10;;;;;;;21.62;13.24;101272.84;5008562;28;20073;-75
2021/04/08 09:25:37;;;;;;;4.45;3.03;;;;;;;20.78;12.71;101255.59;5008889;28;20091;-75
2021/04/08 09:28:10;;;;;;;7.32;5.13;;;;;;;20.46;13.95;101263.34;5007169;28;20054;-74
2021/04/08 09:33:42;;;;;;;9.30;4.57;;;;;;;20.08;13.65;101269.66;5008239;28;20046;-75
2021/04/08 09:36:24;;;;;;;6.07;2.63;;;;;;;20.36;14.19;101265.81;5008988;28;20654;-71
2021/04/08 09:38:52;;;;;;;3.70;3.08;;;;;;;19.66;15.13;101268.34;5024781;28;20128;-73
2021/04/08 09:41:42;;;;;;;4.50;2.40;;;;;;;20.10;14.93;101275.69;5027957;28;20052;-72
2021/04/08 09:44:09;;;;;;;4.65;2.90;;;;;;;19.51;14.92;101266.75;5008712;28;20042;-70
2021/04/08 09:46:42;;;;;;;9.27;3.10;;;;;;;18.93;14.99;101278.75;5007603;28;20106;-73
2021/04/08 09:49:10;;;;;;;5.30;4.03;;;;;;;18.73;16.92;101272.19;5006556;28;20045;-72
2021/04/08 09:51:40;;;;;;;5.22;3.90;;;;;;;18.22;17.49;101266.78;5008558;28;20065;-71
2021/04/08 09:54:09;;;;;;;6.75;3.10;;;;;;;17.80;17.15;101276.53;5009924;28;20046;-71
2021/04/08 09:56:43;;;;;;;2.92;2.50;;;;;;;18.04;16.63;101277.56;5006338;28;20050;-69
2021/04/08 09:59:10;;;;;;;4.18;2.33;;;;;;;17.61;16.49;101281.25;5006278;28;20682;-74
2021/04/08 10:01:37;;;;;;;4.72;2.50;;;;;;;17.35;16.74;101272.31;5007430;28;20038;-72
2021/04/08 10:04:25;;;;;;;5.53;4.00;;;;;;;17.60;17.48;101267.22;5008627;28;20042;-70
2021/04/08 10:07:19;;;;;;;8.82;2.38;;;;;;;17.70;17.25;101268.31;5007160;28;20048;-71
2021/04/08 10:09:54;;;;;;;4.88;3.40;;;;;;;17.23;17.27;101273.94;5007646;28;20077;-67
2021/04/08 10:12:33;;;;;;;6.75;3.63;;;;;;;17.08;18.23;101275.72;5006802;28;20115;-70
2021/04/08 10:14:59;;;;;;;9.77;5.15;;;;;;;16.83;17.50;101265.81;5008929;28;20087;-71
2021/04/08 10:17:36;;;;;;;7.68;4.65;;;;;;;17.05;18.03;101265.38;5005928;28;20496;-71
2021/04/08 10:20:08;;;;;;;6.60;4.60;;;;;;;17.17;18.75;101264.63;5006887;28;20046;-70
2021/04/08 10:22:45;;;;;;;5.03;3.05;;;;;;;17.20;17.61;101258.28;5005140;28;20046;-69
2021/04/08 10:25:12;;;;;;;5.93;3.95;;;;;;;17.22;18.24;101256.44;5005739;28;20434;-68
2021/04/08 10:27:39;;;;;;;5.88;4.13;;;;;;;17.14;18.52;101262.16;5004630;28;20054;-66
2021/04/08 10:30:17;;;;;;;5.28;2.65;;;;;;;16.50;18.33;101258.94;5007515;28;20522;-72
2021/04/08 10:32:44;;;;;;;8.80;4.35;;;;;;;16.77;18.45;101258.25;5006107;28;20435;-71
2021/04/08 10:35:26;;;;;;;6.88;3.55;;;;;;;16.33;18.59;101255.59;5008616;28;20057;-73
2021/04/08 10:38:05;;;;;;;2.92;2.72;;;;;;;16.51;19.85;101265.03;5008138;28;20067;-69
2021/04/08 10:40:33;;;;;;;5.22;3.70;;;;;;;16.68;18.86;101249.13;5007971;28;20477;-72
2021/04/08 10:43:24;;;;;;;3.88;3.55;;;;;;;16.72;19.02;101253.31;5007307;28;20038;-66
2021/04/08 10:45:53;;;;;;;3.20;2.90;;;;;;;16.62;19.02;101251.25;5007909;28;20042;-69
2021/04/08 10:48:22;;;;;;;4.07;3.15;;;;;;;16.91;19.14;101249.56;5008546;28;20155;-68
2021/04/08 10:50:49;;;;;;;6.65;2.83;;;;;;;16.78;18.94;101252.09;5008572;28;20045;-70
2021/04/08 10:53:19;;;;;;;4.38;3.22;;;;;;;16.85;19.05;101247.28;5008455;28;20135;-70
2021/04/08 10:55:48;;;;;;;3.08;2.67;;;;;;;16.65;19.16;101249.28;5009226;28;20480;-70
2021/04/08 10:58:40;;;;;;;3.00;2.70;;;;;;;17.00;19.06;101246.38;5007479;28;20481;-70
2021/04/08 11:01:07;;;;;;;3.10;2.80;;;;;;;16.94;18.96;101249.38;5005697;28;20042;-70
2021/04/08 11:03:33;;;;;;;5.32;2.20;;;;;;;16.96;19.32;101244.84;5007748;28;20049;-71
2021/04/08 11:06:00;;;;;;;3.15;2.45;;;;;;;17.11;19.59;101238.66;5006905;28;20058;-70
2021/04/08 11:08:26;;;;;;;5.18;2.83;;;;;;;17.33;19.90;101237.31;5007759;28;20134;-70
2021/04/08 11:10:53;;;;;;;3.78;2.90;;;;;;;17.31;19.37;101226.88;5006520;28;20091;-71
2021/04/08 11:13:33;;;;;;;4.90;3.47;;;;;;;17.19;19.84;101231.09;5006386;28;20368;-70
2021/04/08 11:16:00;;;;;;;4.82;3.92;;;;;;;16.93;20.00;101229.22;5007531;28;20045;-70
2021/04/08 11:18:26;;;;;;;3.88;2.50;;;;;;;17.19;20.19;101225.84;5006410;28;20049;-71
2021/04/08 11:20:53;;;;;;;7.45;2.97;;;;;;;17.27;19.81;101228.84;5007958;28;20220;-70
2021/04/08 11:23:22;;;;;;;3.13;2.83;;;;;;;17.25;19.42;101225.44;5006220;28;20069;-69
2021/04/08 11:26:06;;;;;;;6.28;3.00;;;;;;;16.84;19.81;101230.66;5008761;28;20056;-70
2021/04/08 11:28:44;;;;;;;12.13;2.58;;;;;;;16.59;19.88;101233.00;5006720;28;20054;-69
2021/04/08 11:31:15;;;;;;;5.80;3.28;;;;;;;16.58;20.89;101229.53;5008124;28;20118;-70
2021/04/08 11:33:42;;;;;;;8.95;3.78;;;;;;;16.54;19.88;101221.91;5007606;28;20111;-69
2021/04/08 11:36:29;;;;;;;4.90;2.90;;;;;;;16.79;20.48;101218.69;5007518;28;20511;-69
2021/04/08 11:38:55;;;;;;;5.88;2.78;;;;;;;16.76;20.21;101217.09;5008256;28;20068;-69
2021/04/08 11:41:27;;;;;;;5.95;2.30;;;;;;;16.74;20.88;101219.81;5007941;28;20070;-69
2021/04/08 11:43:53;;;;;;;4.88;2.92;;;;;;;16.82;21.08;101208.81;5008366;28;20042;-69
2021/04/08 11:46:22;;;;;;;4.10;3.38;;;;;;;16.57;21.43;101208.59;5011367;28;20038;-69